Healdton, OK (73438)

2:26 AM CST on December 22, 2014 (GMT -0600)
APRSWXNET Healdton OK US | Change Station
CLOSE
Current Station
Personal Weather Station
Location: Healdton, OK
Elevation: 954 ft
Nearby Weather Stations

Elev 954 ft 34.24 °N, 97.50 °W | Updated 22 minutes ago

Overcast
Overcast
51 °F
Feels Like 51 °F
N
4
Wind Variable Wind from SSE
Gusts 11.0 mph

Today
High -- | Low -- °F
--% Chance of Precip.
Yesterday
High -- | Low -- °F
Precip. -- in
7:32 AM 5:24 PM
New Moon, 0% visible
Pressure 29.61 in
Visibility 10.0 miles
Clouds Overcast 1200 ft
Dew Point 48 °F
Humidity 90%
Rainfall 0.03 in
Snow Depth Not available.
UV 0 out of 12
Pollen 9.40 out of 12
Air Quality Not available.
Flu Activity Not available.
METAR K1F0 220815Z AUTO 19008KT 10SM OVC012 11/08 A2961 RMK AO2

More Conditions Fewer Conditions

Pressure 29.61 in
Visibility 10.0 miles
Clouds Overcast 1200 ft
Dew Point 48 °F
Humidity 90%
Rainfall 0.03 in
Snow Depth Not available.
UV 0 out of 12
Pollen 9.40 out of 12
Air Quality Not available.
Flu Activity Not available.
METAR K1F0 220815Z AUTO 19008KT 10SM OVC012 11/08 A2961 RMK AO2

More Conditions Fewer Conditions

10-Day Weather Forecast

Almanac

Astronomy

Dec. 22, 2014 Rise Set
Actual Time
Civil Twilight
Nautical Twilight
Astronomical Twilight
Moon
Length of Visible Light
Length of Day
Tomorrow will be .
, % of the Moon is Illuminated

Today's Extremes

State Highs State Lows

Community

WunderPhotos

Upload Photos

1,779,564 photos uploaded!

WunderBlogs® & News

Nearby

Air Quality

  Air Quality AQ Index Pollutant
Not available.

Snow Depth

Station Depth Elevation

Earthquake Activity

City Distance Mag. Time & Date
Minimum magnitude displayed is 2.5.

Coastal Water Temperatures

Place Temperature

Nearby Weather Stations